Observation data for Levelland on 07/05/2020      Previous  Date  Next       Current Mesonet Observations  Soil Data  Daily Summary Page  Observations in Plain Language
KLD1 050500Z 10013KT 25/15 A30 RMK A01 T02540154  RH  057%=      5-min Rain = 0
KLD1 050505Z 10011KT 25/15 A30 RMK A01 T02510154  RH  057%=      5-min Rain = 0
KLD1 050510Z 10010KT 25/16 A3001 RMK A01 T02500155  RH  058%=      5-min Rain = 0
KLD1 050515Z 10010KT 25/16 A3001 RMK A01 T02470155  RH  059%=      5-min Rain = 0
KLD1 050520Z 10009KT 25/16 A3001 RMK A01 T02460155  RH  060%=      5-min Rain = 0
KLD1 050525Z 10009KT 25/16 A3001 RMK A01 T02450156  RH  060%=      5-min Rain = 0
KLD1 050530Z 09009KT 24/16 A3001 RMK A01 T02440157  RH  061%=      5-min Rain = 0
KLD1 050535Z 10008KT 24/16 A3002 RMK A01 T02430157  RH  062%=      5-min Rain = 0
KLD1 050540Z 10008KT 24/16 A3002 RMK A01 T02430157  RH  062%=      5-min Rain = 0
KLD1 050545Z 10008KT 24/16 A3002 RMK A01 T02420157  RH  062%=      5-min Rain = 0
KLD1 050550Z 10008KT 24/16 A3002 RMK A01 T02410157  RH  062%=      5-min Rain = 0
KLD1 050555Z 10008KT 24/16 A3002 RMK A01 T02410158  RH  062%=      5-min Rain = 0
KLD1 050600Z 09008KT 24/16 A3002 RMK A01 T02410158  RH  063%=      5-min Rain = 0
KLD1 050605Z 09008KT 24/16 A3002 RMK A01 T02400158  RH  063%=      5-min Rain = 0
KLD1 050610Z 09009KT 24/16 A3002 RMK A01 T02390158  RH  063%=      5-min Rain = 0
KLD1 050615Z 09008KT 24/16 A3002 RMK A01 T02390158  RH  064%=      5-min Rain = 0
KLD1 050620Z 09007KT 24/16 A3002 RMK A01 T02380158  RH  064%=      5-min Rain = 0
KLD1 050625Z 08007KT 24/16 A3002 RMK A01 T02390158  RH  064%=      5-min Rain = 0
KLD1 050630Z 08007KT 24/16 A3002 RMK A01 T02400158  RH  063%=      5-min Rain = 0
KLD1 050635Z 03007G14KT 24/16 A3004 RMK A01 T02410158  RH  063%=      5-min Rain = 0
KLD1 050640Z 34019G27KT 24/16 A3008 RMK A01 T02440159  RH  062%=      5-min Rain = 0
KLD1 050645Z 33025G31KT 25/16 A3008 RMK A01 T02480161  RH  061%=      5-min Rain = 0
KLD1 050650Z 33014G25KT 25/16 A3008 RMK A01 T02510159  RH  060%=      5-min Rain = 0
KLD1 050655Z 34015G29KT 26/16 A3009 RMK A01 T02550157  RH  057%=      5-min Rain = 0
KLD1 050700Z 34027G34KT 25/16 A301 RMK A01 T02520159  RH  059%=      5-min Rain = 0
KLD1 050705Z 34021G29KT 25/16 A3011 RMK A01 T02450162  RH  063%=      5-min Rain = 0
KLD1 050710Z 35024G31KT 24/16 A3011 RMK A01 T02400161  RH  065%=      5-min Rain = 0
KLD1 050715Z 35026G33KT 24/16 A3011 RMK A01 T02360162  RH  066%=      5-min Rain = 0
KLD1 050720Z 35025G32KT 23/16 A301 RMK A01 T02340162  RH  067%=      5-min Rain = 0
KLD1 050725Z 35023G28KT 23/16 A3011 RMK A01 T02340162  RH  067%=      5-min Rain = 0
KLD1 050730Z 35021KT 23/16 A3011 RMK A01 T02340161  RH  067%=      5-min Rain = 0
KLD1 050735Z 00017G22KT 23/16 A3011 RMK A01 T02340161  RH  067%=      5-min Rain = 0
KLD1 050740Z 00016G21KT 23/16 A3011 RMK A01 T02330161  RH  067%=      5-min Rain = 0
KLD1 050745Z 35020G25KT 23/16 A3011 RMK A01 T02330162  RH  068%=      5-min Rain = 0
KLD1 050750Z 35020G26KT 23/16 A3012 RMK A01 T02320161  RH  068%=      5-min Rain = 0
KLD1 050755Z 35019KT 23/16 A3012 RMK A01 T02290161  RH  068%=      5-min Rain = 0
KLD1 050800Z 34020G27KT 22/17 A3012 RMK A01 T02190167  RH  076%=      5-min Rain = 0
KLD1 050805Z 33019KT 21/17 A3012 RMK A01 T02120172  RH  082%=      5-min Rain = 0
KLD1 050810Z 33018KT 21/17 A3012 RMK A01 T02070174  RH  085%=      5-min Rain = 0
KLD1 050815Z 33016G22KT 21/18 A3012 RMK A01 T02050175  RH  087%=      5-min Rain = 0
KLD1 050820Z 33018G23KT 21/17 A3012 RMK A01 T02050173  RH  087%=      5-min Rain = 0
KLD1 050825Z 33019G24KT 20/17 A3012 RMK A01 T02030172  RH  087%=      5-min Rain = 0.01
KLD1 050830Z 33018KT 20/17 A3012 RMK A01 T02010173  RH  088%=      5-min Rain = 0.01
KLD1 050835Z 33017G22KT 20/17 A3012 RMK A01 T02000174  RH  090%=      5-min Rain = 0.01
KLD1 050840Z 33017KT 20/17 A3012 RMK A01 T02000174  RH  090%=      5-min Rain = 0.01
KLD1 050845Z 33016G21KT 20/17 A3012 RMK A01 T02000173  RH  089%=      5-min Rain = 0.01
KLD1 050850Z 33015KT 20/17 A3011 RMK A01 T02000171  RH  087%=      5-min Rain = 0
KLD1 050855Z 34013KT 20/17 A301 RMK A01 T02010171  RH  087%=      5-min Rain = 0
KLD1 050900Z 33013G18KT 20/17 A3011 RMK A01 T02020171  RH  087%=      5-min Rain = 0.02
KLD1 050905Z 31010G16KT 20/17 A3011 RMK A01 T02020172  RH  087%=      5-min Rain = 0
KLD1 050910Z 33010KT 20/17 A301 RMK A01 T02020173  RH  088%=      5-min Rain = 0.01
KLD1 050915Z 33014KT 21/17 A301 RMK A01 T02050171  RH  085%=      5-min Rain = 0.01
KLD1 050920Z 34015KT 21/17 A3009 RMK A01 T02050172  RH  085%=      5-min Rain = 0
KLD1 050925Z 34016KT 21/17 A3009 RMK A01 T02060171  RH  084%=      5-min Rain = 0
KLD1 050930Z 35017KT 21/17 A3008 RMK A01 T02060171  RH  084%=      5-min Rain = 0.01
KLD1 050935Z 36016KT 21/17 A3007 RMK A01 T02050169  RH  084%=      5-min Rain = 0.02
KLD1 050940Z 00014KT 21/17 A3006 RMK A01 T02070168  RH  082%=      5-min Rain = 0
KLD1 050945Z 01014KT 21/17 A3005 RMK A01 T02060170  RH  084%=      5-min Rain = 0
KLD1 050950Z 02014KT 21/17 A3004 RMK A01 T02060170  RH  084%=      5-min Rain = 0
KLD1 050955Z 03014KT 21/17 A3003 RMK A01 T02070170  RH  084%=      5-min Rain = 0
KLD1 051000Z 02013KT 21/17 A3003 RMK A01 T02080169  RH  083%=      5-min Rain = 0
KLD1 051005Z 02010KT 21/17 A3002 RMK A01 T02080171  RH  084%=      5-min Rain = 0
KLD1 051010Z 03008KT 21/17 A3002 RMK A01 T02080171  RH  083%=      5-min Rain = 0
KLD1 051015Z 03007KT 21/17 A3002 RMK A01 T02080171  RH  084%=      5-min Rain = 0
KLD1 051020Z 03007KT 21/17 A3002 RMK A01 T02080171  RH  084%=      5-min Rain = 0
KLD1 051025Z 03007KT 21/17 A3002 RMK A01 T02080169  RH  082%=      5-min Rain = 0
KLD1 051030Z 03006KT 21/17 A3002 RMK A01 T02100168  RH  081%=      5-min Rain = 0
KLD1 051035Z 03005KT 21/17 A3002 RMK A01 T02090170  RH  082%=      5-min Rain = 0
KLD1 051040Z 04004KT 21/17 A3002 RMK A01 T02090171  RH  083%=      5-min Rain = 0
KLD1 051045Z 07003KT 21/17 A3001 RMK A01 T02080171  RH  084%=      5-min Rain = 0
KLD1 051050Z 09003KT 21/17 A3001 RMK A01 T02090173  RH  084%=      5-min Rain = 0
KLD1 051055Z 13002KT 21/18 A3001 RMK A01 T02100176  RH  085%=      5-min Rain = 0
KLD1 051100Z 09003KT 21/17 A30 RMK A01 T02100174  RH  084%=      5-min Rain = 0
KLD1 051105Z 12004KT 21/17 A30 RMK A01 T02110174  RH  084%=      5-min Rain = 0
KLD1 051110Z 13003KT 21/17 A30 RMK A01 T02120172  RH  082%=      5-min Rain = 0
KLD1 051115Z 16004KT 21/18 A2999 RMK A01 T02110177  RH  085%=      5-min Rain = 0
KLD1 051120Z 17006KT 21/18 A2999 RMK A01 T02100178  RH  086%=      5-min Rain = 0
KLD1 051125Z 19006KT 21/18 A2999 RMK A01 T02100177  RH  085%=      5-min Rain = 0
KLD1 051130Z 20006KT 21/18 A30 RMK A01 T02100178  RH  086%=      5-min Rain = 0
KLD1 051135Z 22005KT 21/18 A30 RMK A01 T02110178  RH  086%=      5-min Rain = 0
KLD1 051140Z 21004KT 21/18 A30 RMK A01 T02100177  RH  086%=      5-min Rain = 0
KLD1 051145Z 21004KT 21/18 A30 RMK A01 T02120177  RH  085%=      5-min Rain = 0
KLD1 051150Z 25003KT 21/18 A3001 RMK A01 T02130180  RH  086%=      5-min Rain = 0
KLD1 051155Z 25003KT 21/18 A3001 RMK A01 T02110182  RH  088%=      5-min Rain = 0
KLD1 051200Z 20002KT 21/18 A3001 RMK A01 T02100182  RH  088%=      5-min Rain = 0
KLD1 051205Z 19003KT 21/18 A3001 RMK A01 T02120181  RH  087%=      5-min Rain = 0
KLD1 051210Z 18003KT 22/18 A3001 RMK A01 T02150181  RH  085%=      5-min Rain = 0
KLD1 051215Z 17001KT 22/18 A3001 RMK A01 T02190181  RH  083%=      5-min Rain = 0
KLD1 051220Z 04002KT 22/19 A3001 RMK A01 T02230185  RH  083%=      5-min Rain = 0
KLD1 051225Z 08007KT 22/18 A3002 RMK A01 T02200184  RH  084%=      5-min Rain = 0
KLD1 051230Z 06004KT 22/18 A3002 RMK A01 T02180179  RH  083%=      5-min Rain = 0
KLD1 051235Z 11002KT 22/18 A3002 RMK A01 T02200181  RH  083%=      5-min Rain = 0
KLD1 051240Z 10004KT 22/18 A3002 RMK A01 T02190179  RH  082%=      5-min Rain = 0
KLD1 051245Z 10004KT 22/18 A3002 RMK A01 T02190179  RH  082%=      5-min Rain = 0
KLD1 051250Z 12003KT 22/17 A3002 RMK A01 T02210174  RH  079%=      5-min Rain = 0
KLD1 051255Z 12002KT 22/17 A3002 RMK A01 T02220172  RH  077%=      5-min Rain = 0
KLD1 051300Z 13005KT 22/17 A3003 RMK A01 T02230169  RH  075%=      5-min Rain = 0
KLD1 051305Z 13006KT 22/17 A3003 RMK A01 T02230171  RH  076%=      5-min Rain = 0
KLD1 051310Z 13006KT 22/17 A3003 RMK A01 T02230170  RH  075%=      5-min Rain = 0
KLD1 051315Z 15006KT 22/17 A3003 RMK A01 T02230169  RH  075%=      5-min Rain = 0
KLD1 051320Z 13005KT 22/17 A3004 RMK A01 T02240171  RH  075%=      5-min Rain = 0
KLD1 051325Z 13004KT 23/17 A3004 RMK A01 T02260170  RH  074%=      5-min Rain = 0
KLD1 051330Z 11004KT 23/17 A3005 RMK A01 T02270171  RH  074%=      5-min Rain = 0
KLD1 051335Z 08004KT 23/17 A3005 RMK A01 T02300172  RH  074%=      5-min Rain = 0
KLD1 051340Z 09004KT 23/17 A3005 RMK A01 T02310171  RH  073%=      5-min Rain = 0
KLD1 051345Z 09005KT 23/17 A3006 RMK A01 T02290169  RH  073%=      5-min Rain = 0
KLD1 051350Z 10005KT 23/17 A3006 RMK A01 T02280172  RH  074%=      5-min Rain = 0
KLD1 051355Z 11004KT 23/17 A3006 RMK A01 T02280171  RH  074%=      5-min Rain = 0
KLD1 051400Z 07003KT 23/17 A3006 RMK A01 T02310171  RH  073%=      5-min Rain = 0
KLD1 051405Z 07005KT 23/17 A3007 RMK A01 T02320171  RH  072%=      5-min Rain = 0
KLD1 051410Z 12003KT 23/17 A3007 RMK A01 T02340172  RH  072%=      5-min Rain = 0
KLD1 051415Z 07003KT 23/17 A3007 RMK A01 T02320170  RH  072%=      5-min Rain = 0
KLD1 051420Z 13004KT 23/17 A3007 RMK A01 T02340168  RH  070%=      5-min Rain = 0
KLD1 051425Z 09004KT 24/17 A3007 RMK A01 T02360168  RH  069%=      5-min Rain = 0
KLD1 051430Z 09003KT 24/17 A3008 RMK A01 T02360168  RH  069%=      5-min Rain = 0
KLD1 051435Z 07003KT 24/17 A3008 RMK A01 T02400172  RH  069%=      5-min Rain = 0
KLD1 051440Z 09003KT 24/17 A3008 RMK A01 T02400171  RH  068%=      5-min Rain = 0
KLD1 051445Z 11001KT 24/17 A3008 RMK A01 T02420166  RH  066%=      5-min Rain = 0
KLD1 051450Z 10000KT 25/17 A3008 RMK A01 T02470170  RH  065%=      5-min Rain = 0
KLD1 051455Z 10002KT 25/17 A3008 RMK A01 T02480169  RH  065%=      5-min Rain = 0
KLD1 051500Z 08004KT 25/17 A3008 RMK A01 T02450168  RH  066%=      5-min Rain = 0
KLD1 051505Z 07004KT 25/17 A3008 RMK A01 T02470165  RH  063%=      5-min Rain = 0
KLD1 051510Z 09006KT 25/16 A3008 RMK A01 T02490163  RH  062%=      5-min Rain = 0
KLD1 051515Z 07005KT 25/17 A3008 RMK A01 T02510165  RH  062%=      5-min Rain = 0
KLD1 051520Z 05006KT 25/17 A3008 RMK A01 T02500165  RH  062%=      5-min Rain = 0
KLD1 051525Z 05006KT 25/17 A3007 RMK A01 T02520166  RH  062%=      5-min Rain = 0
KLD1 051530Z 06007KT 25/16 A3007 RMK A01 T02530159  RH  059%=      5-min Rain = 0
KLD1 051535Z 05006KT 25/16 A3007 RMK A01 T02530162  RH  060%=      5-min Rain = 0
KLD1 051540Z 05006KT 26/16 A3007 RMK A01 T02550163  RH  060%=      5-min Rain = 0
KLD1 051545Z 05007KT 26/16 A3007 RMK A01 T02570162  RH  058%=      5-min Rain = 0
KLD1 051550Z 05005KT 26/16 A3007 RMK A01 T02600160  RH  057%=      5-min Rain = 0
KLD1 051555Z 05007KT 26/16 A3007 RMK A01 T02610159  RH  056%=      5-min Rain = 0
KLD1 051600Z 05008KT 26/16 A3006 RMK A01 T02640160  RH  055%=      5-min Rain = 0
KLD1 051605Z 04007KT 27/16 A3007 RMK A01 T02650159  RH  055%=      5-min Rain = 0
KLD1 051610Z 05009KT 27/16 A3007 RMK A01 T02660159  RH  054%=      5-min Rain = 0
KLD1 051615Z 04009KT 27/16 A3007 RMK A01 T02680160  RH  054%=      5-min Rain = 0
KLD1 051620Z 06009KT 27/16 A3007 RMK A01 T02700159  RH  053%=      5-min Rain = 0
KLD1 051625Z 05009KT 27/16 A3007 RMK A01 T02710159  RH  053%=      5-min Rain = 0
KLD1 051630Z 07010KT 27/16 A3007 RMK A01 T02710156  RH  051%=      5-min Rain = 0
KLD1 051635Z 06009KT 27/16 A3007 RMK A01 T02710156  RH  052%=      5-min Rain = 0
KLD1 051640Z 07009KT 27/16 A3007 RMK A01 T02740157  RH  051%=      5-min Rain = 0
KLD1 051645Z 08008KT 28/16 A3007 RMK A01 T02750157  RH  051%=      5-min Rain = 0
KLD1 051650Z 06009KT 28/16 A3007 RMK A01 T02770160  RH  051%=      5-min Rain = 0
KLD1 051655Z 06009KT 28/16 A3006 RMK A01 T02780157  RH  050%=      5-min Rain = 0
KLD1 051700Z 05008KT 28/16 A3006 RMK A01 T02770156  RH  050%=      5-min Rain = 0
KLD1 051705Z 05009KT 28/16 A3006 RMK A01 T02810159  RH  050%=      5-min Rain = 0
KLD1 051710Z 05009KT 28/16 A3006 RMK A01 T02840157  RH  048%=      5-min Rain = 0
KLD1 051715Z 07007KT 28/15 A3006 RMK A01 T02840153  RH  047%=      5-min Rain = 0
KLD1 051720Z 05008KT 29/15 A3006 RMK A01 T02860154  RH  047%=      5-min Rain = 0
KLD1 051725Z 05007KT 29/15 A3006 RMK A01 T02880147  RH  044%=      5-min Rain = 0
KLD1 051730Z 05007KT 29/15 A3006 RMK A01 T02900149  RH  044%=      5-min Rain = 0
KLD1 051735Z 09007G13KT 29/15 A3006 RMK A01 T02940145  RH  042%=      5-min Rain = 0
KLD1 051740Z 09007KT 29/14 A3006 RMK A01 T02940144  RH  042%=      5-min Rain = 0
KLD1 051745Z 08006G11KT 30/14 A3006 RMK A01 T02950143  RH  041%=      5-min Rain = 0
KLD1 051750Z 08007KT 30/14 A3005 RMK A01 T02960144  RH  041%=      5-min Rain = 0
KLD1 051755Z 06005KT 30/14 A3005 RMK A01 T02980141  RH  040%=      5-min Rain = 0
KLD1 051800Z 04004KT 30/14 A3005 RMK A01 T03000140  RH  039%=      5-min Rain = 0
KLD1 051805Z 08006G11KT 30/14 A3005 RMK A01 T03030142  RH  039%=      5-min Rain = 0
KLD1 051810Z 07007KT 30/14 A3005 RMK A01 T03030141  RH  039%=      5-min Rain = 0
KLD1 051815Z 06003G9KT 30/14 A3005 RMK A01 T03030139  RH  038%=      5-min Rain = 0
KLD1 051820Z 07006G11KT 31/14 A3004 RMK A01 T03070142  RH  038%=      5-min Rain = 0
KLD1 051825Z 10005KT 31/14 A3004 RMK A01 T03100139  RH  037%=      5-min Rain = 0
KLD1 051830Z 09005G11KT 31/14 A3004 RMK A01 T03080138  RH  037%=      5-min Rain = 0
KLD1 051835Z 08006KT 31/14 A3004 RMK A01 T03070136  RH  037%=      5-min Rain = 0
KLD1 051840Z 10003KT 31/14 A3004 RMK A01 T03080137  RH  037%=      5-min Rain = 0
KLD1 051845Z 10002KT 31/14 A3004 RMK A01 T03140137  RH  035%=      5-min Rain = 0
KLD1 051850Z 06003KT 31/13 A3004 RMK A01 T03130134  RH  035%=      5-min Rain = 0
KLD1 051855Z 09001KT 31/13 A3004 RMK A01 T03140132  RH  034%=      5-min Rain = 0
KLD1 051900Z 06004KT 32/13 A3004 RMK A01 T03150134  RH  034%=      5-min Rain = 0
KLD1 051905Z 02003KT 32/13 A3004 RMK A01 T03150133  RH  034%=      5-min Rain = 0
KLD1 051910Z 27003KT 32/13 A3003 RMK A01 T03150132  RH  034%=      5-min Rain = 0
KLD1 051915Z 33003KT 32/13 A3003 RMK A01 T03180133  RH  034%=      5-min Rain = 0
KLD1 051920Z 11004G9KT 32/14 A3003 RMK A01 T03230136  RH  034%=      5-min Rain = 0
KLD1 051925Z 07005KT 32/14 A3003 RMK A01 T03220136  RH  034%=      5-min Rain = 0
KLD1 051930Z 16002G8KT 32/14 A3003 RMK A01 T03180136  RH  034%=      5-min Rain = 0
KLD1 051935Z 08009G15KT 32/15 A3003 RMK A01 T03240146  RH  036%=      5-min Rain = 0
KLD1 051940Z 11009G14KT 32/15 A3002 RMK A01 T03200145  RH  036%=      5-min Rain = 0
KLD1 051945Z 11008KT 31/15 A3002 RMK A01 T03140146  RH  038%=      5-min Rain = 0
KLD1 051950Z 10007G12KT 32/15 A3002 RMK A01 T03150146  RH  038%=      5-min Rain = 0
KLD1 051955Z 13010G16KT 32/15 A3002 RMK A01 T03210149  RH  037%=      5-min Rain = 0
KLD1 052000Z 10011G19KT 32/15 A3002 RMK A01 T03230151  RH  037%=      5-min Rain = 0
KLD1 052005Z 09010KT 32/15 A3002 RMK A01 T03220150  RH  037%=      5-min Rain = 0
KLD1 052010Z 08006G11KT 32/15 A3001 RMK A01 T03200148  RH  037%=      5-min Rain = 0
KLD1 052015Z 07006G12KT 32/15 A3001 RMK A01 T03190147  RH  037%=      5-min Rain = 0
KLD1 052020Z 07008G13KT 32/15 A3001 RMK A01 T03210148  RH  037%=      5-min Rain = 0
KLD1 052025Z 08006G11KT 32/15 A3001 RMK A01 T03230149  RH  037%=      5-min Rain = 0
KLD1 052030Z 12008G15KT 32/15 A30 RMK A01 T03240149  RH  036%=      5-min Rain = 0
KLD1 052035Z 12010KT 33/15 A30 RMK A01 T03260148  RH  036%=      5-min Rain = 0
KLD1 052040Z 12007G14KT 33/15 A30 RMK A01 T03270147  RH  035%=      5-min Rain = 0
KLD1 052045Z 10008G13KT 32/15 A30 RMK A01 T03230148  RH  036%=      5-min Rain = 0
KLD1 052050Z 06008KT 33/15 A2999 RMK A01 T03250150  RH  036%=      5-min Rain = 0
KLD1 052055Z 09006KT 33/15 A2999 RMK A01 T03310149  RH  035%=      5-min Rain = 0
KLD1 052100Z 10007KT 33/15 A2999 RMK A01 T03290147  RH  035%=      5-min Rain = 0
KLD1 052105Z 13007G13KT 33/15 A2999 RMK A01 T03320149  RH  035%=      5-min Rain = 0
KLD1 052110Z 12008G13KT 33/15 A2998 RMK A01 T03310152  RH  036%=      5-min Rain = 0
KLD1 052115Z 13005KT 33/15 A2998 RMK A01 T03280148  RH  035%=      5-min Rain = 0
KLD1 052120Z 14007KT 33/15 A2998 RMK A01 T03310150  RH  035%=      5-min Rain = 0
KLD1 052125Z 15006KT 33/15 A2998 RMK A01 T03310147  RH  034%=      5-min Rain = 0
KLD1 052130Z 13008G14KT 34/15 A2998 RMK A01 T03350150  RH  034%=      5-min Rain = 0
KLD1 052135Z 15009KT 33/15 A2997 RMK A01 T03330147  RH  034%=      5-min Rain = 0
KLD1 052140Z 14007G13KT 33/15 A2997 RMK A01 T03300146  RH  035%=      5-min Rain = 0
KLD1 052145Z 15008KT 33/15 A2997 RMK A01 T03320147  RH  034%=      5-min Rain = 0
KLD1 052150Z 14009G15KT 33/15 A2997 RMK A01 T03340150  RH  035%=      5-min Rain = 0
KLD1 052155Z 12011G16KT 33/15 A2996 RMK A01 T03340148  RH  034%=      5-min Rain = 0
KLD1 052200Z 12009G15KT 33/15 A2996 RMK A01 T03330147  RH  034%=      5-min Rain = 0
KLD1 052205Z 12008G15KT 33/15 A2996 RMK A01 T03320148  RH  034%=      5-min Rain = 0
KLD1 052210Z 13007G15KT 33/15 A2996 RMK A01 T03320145  RH  034%=      5-min Rain = 0
KLD1 052215Z 12007G14KT 33/15 A2996 RMK A01 T03320146  RH  034%=      5-min Rain = 0
KLD1 052220Z 15008G13KT 33/15 A2996 RMK A01 T03340145  RH  033%=      5-min Rain = 0
KLD1 052225Z 16006KT 33/14 A2995 RMK A01 T03320142  RH  033%=      5-min Rain = 0
KLD1 052230Z 10007KT 34/15 A2995 RMK A01 T03360146  RH  033%=      5-min Rain = 0
KLD1 052235Z 11007KT 33/14 A2995 RMK A01 T03310143  RH  034%=      5-min Rain = 0
KLD1 052240Z 16003KT 33/15 A2995 RMK A01 T03320145  RH  034%=      5-min Rain = 0
KLD1 052245Z 12006G11KT 33/14 A2995 RMK A01 T03340143  RH  033%=      5-min Rain = 0
KLD1 052250Z 08008G14KT 33/15 A2995 RMK A01 T03340146  RH  034%=      5-min Rain = 0
KLD1 052255Z 10006G11KT 34/15 A2994 RMK A01 T03380145  RH  033%=      5-min Rain = 0
KLD1 052300Z 11006KT 34/15 A2994 RMK A01 T03350146  RH  033%=      5-min Rain = 0
KLD1 052305Z 13011G17KT 34/15 A2994 RMK A01 T03380146  RH  033%=      5-min Rain = 0
KLD1 052310Z 12009KT 33/14 A2994 RMK A01 T03340143  RH  033%=      5-min Rain = 0
KLD1 052315Z 12006KT 33/14 A2994 RMK A01 T03320143  RH  033%=      5-min Rain = 0
KLD1 052320Z 09006KT 33/14 A2993 RMK A01 T03330142  RH  033%=      5-min Rain = 0
KLD1 052325Z 09006KT 33/14 A2993 RMK A01 T03300141  RH  033%=      5-min Rain = 0
KLD1 052330Z 09008KT 33/15 A2993 RMK A01 T03300145  RH  034%=      5-min Rain = 0
KLD1 052335Z 13007G13KT 33/15 A2993 RMK A01 T03320146  RH  034%=      5-min Rain = 0
KLD1 052340Z 13006KT 33/15 A2993 RMK A01 T03330145  RH  034%=      5-min Rain = 0
KLD1 052345Z 12005G10KT 33/15 A2993 RMK A01 T03310145  RH  034%=      5-min Rain = 0
KLD1 052350Z 12010G16KT 33/15 A2993 RMK A01 T03340146  RH  034%=      5-min Rain = 0
KLD1 052355Z 12010G15KT 33/15 A2993 RMK A01 T03330145  RH  034%=      5-min Rain = 0
KLD1 060000Z 12009KT 33/14 A2993 RMK A01 T03310144  RH  034%=      5-min Rain = 0
KLD1 060005Z 12008KT 33/14 A2993 RMK A01 T03310143  RH  034%=      5-min Rain = 0
KLD1 060010Z 12004G10KT 33/14 A2993 RMK A01 T03300143  RH  034%=      5-min Rain = 0
KLD1 060015Z 12005G10KT 33/14 A2992 RMK A01 T03300143  RH  034%=      5-min Rain = 0
KLD1 060020Z 11008KT 33/15 A2992 RMK A01 T03310145  RH  034%=      5-min Rain = 0
KLD1 060025Z 09005G10KT 33/14 A2992 RMK A01 T03280144  RH  034%=      5-min Rain = 0
KLD1 060030Z 11006KT 33/14 A2993 RMK A01 T03280144  RH  035%=      5-min Rain = 0
KLD1 060035Z 12007KT 33/14 A2993 RMK A01 T03260144  RH  035%=      5-min Rain = 0
KLD1 060040Z 14005KT 32/14 A2993 RMK A01 T03240144  RH  035%=      5-min Rain = 0
KLD1 060045Z 11006KT 32/15 A2993 RMK A01 T03230145  RH  036%=      5-min Rain = 0
KLD1 060050Z 09007KT 32/15 A2993 RMK A01 T03180147  RH  037%=      5-min Rain = 0
KLD1 060055Z 10007KT 32/15 A2993 RMK A01 T03170145  RH  037%=      5-min Rain = 0
KLD1 060100Z 10007KT 32/15 A2993 RMK A01 T03150147  RH  038%=      5-min Rain = 0
KLD1 060105Z 10006KT 31/15 A2993 RMK A01 T03120148  RH  039%=      5-min Rain = 0
KLD1 060110Z 10005KT 31/15 A2993 RMK A01 T03120148  RH  039%=      5-min Rain = 0
KLD1 060115Z 10007KT 31/15 A2993 RMK A01 T03120147  RH  039%=      5-min Rain = 0
KLD1 060120Z 09007KT 31/15 A2994 RMK A01 T03090149  RH  040%=      5-min Rain = 0
KLD1 060125Z 10006KT 31/15 A2994 RMK A01 T03080149  RH  040%=      5-min Rain = 0
KLD1 060130Z 13004KT 31/15 A2995 RMK A01 T03090148  RH  040%=      5-min Rain = 0
KLD1 060135Z 25017G27KT 28/16 A2997 RMK A01 T02820156  RH  049%=      5-min Rain = 0
KLD1 060140Z 27023G30KT 26/16 A2997 RMK A01 T02550157  RH  057%=      5-min Rain = 0
KLD1 060145Z 26023G31KT 25/16 A2997 RMK A01 T02530155  RH  057%=      5-min Rain = 0
KLD1 060150Z 25022G29KT 25/15 A2997 RMK A01 T02510154  RH  057%=      5-min Rain = 0
KLD1 060155Z 24026G35KT 25/15 A2997 RMK A01 T02460153  RH  059%=      5-min Rain = 0
KLD1 060200Z 25028G33KT 23/17 A2998 RMK A01 T02250168  RH  074%=      5-min Rain = 0.01
KLD1 060205Z 25023G33KT 21/17 A2999 RMK A01 T02090171  RH  083%=      5-min Rain = 0.02
KLD1 060210Z 26016G26KT 21/17 A3002 RMK A01 T02060172  RH  085%=      5-min Rain = 0.01
KLD1 060215Z 26008KT 21/17 A3002 RMK A01 T02060170  RH  084%=      5-min Rain = 0.01
KLD1 060220Z 05005G10KT 21/17 A3002 RMK A01 T02080170  RH  083%=      5-min Rain = 0.01
KLD1 060225Z 04009G20KT 21/17 A3001 RMK A01 T02130168  RH  079%=      5-min Rain = 0
KLD1 060230Z 04006KT 22/17 A3002 RMK A01 T02180172  RH  079%=      5-min Rain = 0
KLD1 060235Z 01004KT 22/18 A3002 RMK A01 T02170179  RH  083%=      5-min Rain = 0
KLD1 060240Z 01001KT 22/18 A3002 RMK A01 T02170181  RH  085%=      5-min Rain = 0
KLD1 060245Z 09003KT 22/18 A3001 RMK A01 T02180181  RH  084%=      5-min Rain = 0
KLD1 060250Z 06002KT 22/19 A3002 RMK A01 T02200185  RH  085%=      5-min Rain = 0
KLD1 060255Z 08005KT 22/18 A3002 RMK A01 T02200183  RH  084%=      5-min Rain = 0
KLD1 060300Z 08005KT 22/19 A3002 RMK A01 T02210187  RH  086%=      5-min Rain = 0
KLD1 060305Z 07005KT 22/19 A3003 RMK A01 T02210189  RH  087%=      5-min Rain = 0
KLD1 060310Z 12006KT 22/19 A3003 RMK A01 T02220188  RH  085%=      5-min Rain = 0
KLD1 060315Z 13007KT 22/18 A3003 RMK A01 T02220184  RH  083%=      5-min Rain = 0
KLD1 060320Z 12007G13KT 22/18 A3003 RMK A01 T02210183  RH  083%=      5-min Rain = 0
KLD1 060325Z 15006KT 22/18 A3003 RMK A01 T02200184  RH  084%=      5-min Rain = 0
KLD1 060330Z 18008KT 22/19 A3004 RMK A01 T02200187  RH  086%=      5-min Rain = 0
KLD1 060335Z 26006KT 22/19 A3005 RMK A01 T02210190  RH  087%=      5-min Rain = 0
KLD1 060340Z 29006G13KT 22/18 A3005 RMK A01 T02220179  RH  081%=      5-min Rain = 0.01
KLD1 060345Z 32009KT 23/18 A3005 RMK A01 T02260184  RH  082%=      5-min Rain = 0
KLD1 060350Z 32007KT 22/18 A3005 RMK A01 T02220182  RH  082%=      5-min Rain = 0
KLD1 060355Z 31007KT 23/17 A3005 RMK A01 T02260172  RH  075%=      5-min Rain = 0
KLD1 060400Z 32009KT 23/17 A3006 RMK A01 T02250174  RH  076%=      5-min Rain = 0
KLD1 060405Z 31007KT 23/18 A3006 RMK A01 T02250175  RH  077%=      5-min Rain = 0
KLD1 060410Z 33008KT 22/18 A3006 RMK A01 T02230176  RH  079%=      5-min Rain = 0
KLD1 060415Z 01007KT 22/17 A3006 RMK A01 T02230172  RH  077%=      5-min Rain = 0
KLD1 060420Z 00006KT 22/17 A3006 RMK A01 T02200172  RH  078%=      5-min Rain = 0
KLD1 060425Z 03005KT 22/17 A3006 RMK A01 T02190171  RH  078%=      5-min Rain = 0
KLD1 060430Z 04008KT 22/18 A3006 RMK A01 T02170175  RH  081%=      5-min Rain = 0
KLD1 060435Z 05009KT 21/17 A3005 RMK A01 T02140172  RH  081%=      5-min Rain = 0
KLD1 060440Z 07011KT 21/17 A3003 RMK A01 T02130168  RH  079%=      5-min Rain = 0
KLD1 060445Z 09011KT 21/17 A3002 RMK A01 T02100170  RH  082%=      5-min Rain = 0
KLD1 060450Z 08010KT 21/17 A3002 RMK A01 T02090168  RH  081%=      5-min Rain = 0
KLD1 060455Z 07009KT 21/17 A3002 RMK A01 T02070169  RH  083%=      5-min Rain = 0

Page generated in 0.0148 seconds.